sensor_id;sensor_type;location;lat;lon;timestamp;pressure;altitude;pressure_sealevel;temperature;humidity
42887;BME280;29032;56.028;92.904;2023-01-28T00:00:36;99992.31;;;-8.25;45.62
42887;BME280;29032;56.028;92.904;2023-01-28T00:05:39;99990.84;;;-8.30;45.67
42887;BME280;29032;56.028;92.904;2023-01-28T00:10:41;99991.66;;;-8.33;45.70
42887;BME280;29032;56.028;92.904;2023-01-28T00:15:43;99994.66;;;-8.27;45.97
42887;BME280;29032;56.028;92.904;2023-01-28T00:20:56;100002.19;;;-8.11;46.03
42887;BME280;29032;56.028;92.904;2023-01-28T00:25:59;99979.78;;;-8.19;45.84
42887;BME280;29032;56.028;92.904;2023-01-28T00:31:06;100006.19;;;-7.76;46.59
42887;BME280;29032;56.028;92.904;2023-01-28T00:36:11;100002.75;;;-7.57;46.03
42887;BME280;29032;56.028;92.904;2023-01-28T00:41:15;100003.47;;;-7.53;45.90
42887;BME280;29032;56.028;92.904;2023-01-28T00:46:19;100009.53;;;-7.45;45.51
42887;BME280;29032;56.028;92.904;2023-01-28T00:51:23;100006.38;;;-7.44;45.39
42887;BME280;29032;56.028;92.904;2023-01-28T00:56:25;100006.31;;;-7.60;45.19
42887;BME280;29032;56.028;92.904;2023-01-28T01:01:27;100000.75;;;-7.76;45.45
42887;BME280;29032;56.028;92.904;2023-01-28T01:06:33;99999.16;;;-7.94;45.78
42887;BME280;29032;56.028;92.904;2023-01-28T01:11:35;100000.50;;;-8.05;45.74
42887;BME280;29032;56.028;92.904;2023-01-28T01:16:37;100005.66;;;-8.11;45.89
42887;BME280;29032;56.028;92.904;2023-01-28T01:21:41;100004.59;;;-8.17;46.26
42887;BME280;29032;56.028;92.904;2023-01-28T01:26:43;99999.63;;;-8.22;46.23
42887;BME280;29032;56.028;92.904;2023-01-28T01:31:45;99998.31;;;-8.14;46.22
42887;BME280;29032;56.028;92.904;2023-01-28T01:36:49;99985.66;;;-7.97;45.82
42887;BME280;29032;56.028;92.904;2023-01-28T01:41:51;99996.38;;;-7.90;45.53
42887;BME280;29032;56.028;92.904;2023-01-28T01:46:53;99992.69;;;-7.80;45.79
42887;BME280;29032;56.028;92.904;2023-01-28T01:52:01;99986.28;;;-7.70;45.33
42887;BME280;29032;56.028;92.904;2023-01-28T01:57:07;99990.47;;;-7.65;45.45
42887;BME280;29032;56.028;92.904;2023-01-28T02:02:11;99982.41;;;-7.49;45.15
42887;BME280;29032;56.028;92.904;2023-01-28T02:07:16;99975.00;;;-7.28;44.95
42887;BME280;29032;56.028;92.904;2023-01-28T02:12:22;99977.09;;;-7.16;44.73
42887;BME280;29032;56.028;92.904;2023-01-28T02:17:26;99982.22;;;-7.02;44.28
42887;BME280;29032;56.028;92.904;2023-01-28T02:22:53;99977.41;;;-6.78;44.38
42887;BME280;29032;56.028;92.904;2023-01-28T02:28:16;99977.34;;;-6.58;44.13
42887;BME280;29032;56.028;92.904;2023-01-28T02:33:26;99970.66;;;-6.37;43.68
42887;BME280;29032;56.028;92.904;2023-01-28T02:38:33;99974.81;;;-6.16;43.72
42887;BME280;29032;56.028;92.904;2023-01-28T02:43:41;99969.06;;;-5.89;43.20
42887;BME280;29032;56.028;92.904;2023-01-28T02:48:44;99971.41;;;-5.75;42.51
42887;BME280;29032;56.028;92.904;2023-01-28T02:53:49;99968.25;;;-5.74;42.60
42887;BME280;29032;56.028;92.904;2023-01-28T02:58:59;99954.63;;;-5.74;42.31
42887;BME280;29032;56.028;92.904;2023-01-28T03:04:08;99958.09;;;-5.73;42.35
42887;BME280;29032;56.028;92.904;2023-01-28T03:09:15;99962.72;;;-5.70;41.92
42887;BME280;29032;56.028;92.904;2023-01-28T03:14:21;99961.06;;;-5.67;42.04
42887;BME280;29032;56.028;92.904;2023-01-28T03:19:24;99964.38;;;-5.60;42.10
42887;BME280;29032;56.028;92.904;2023-01-28T03:24:30;99965.09;;;-5.43;41.94
42887;BME280;29032;56.028;92.904;2023-01-28T03:29:39;99956.72;;;-5.36;41.77
42887;BME280;29032;56.028;92.904;2023-01-28T03:34:44;99958.88;;;-5.31;41.71
42887;BME280;29032;56.028;92.904;2023-01-28T03:39:47;99958.81;;;-5.14;41.36
42887;BME280;29032;56.028;92.904;2023-01-28T03:44:51;99952.28;;;-5.04;40.92
42887;BME280;29032;56.028;92.904;2023-01-28T03:49:55;99943.09;;;-5.10;41.26
42887;BME280;29032;56.028;92.904;2023-01-28T03:54:58;99935.78;;;-5.26;40.99
42887;BME280;29032;56.028;92.904;2023-01-28T04:00:02;99923.75;;;-5.41;41.30
42887;BME280;29032;56.028;92.904;2023-01-28T04:05:15;99917.75;;;-5.49;41.47
42887;BME280;29032;56.028;92.904;2023-01-28T04:10:21;99912.94;;;-5.45;41.93
42887;BME280;29032;56.028;92.904;2023-01-28T04:15:33;99905.97;;;-5.46;41.70
42887;BME280;29032;56.028;92.904;2023-01-28T04:20:36;99908.66;;;-5.59;41.33
42887;BME280;29032;56.028;92.904;2023-01-28T04:25:38;99917.28;;;-5.60;41.42
42887;BME280;29032;56.028;92.904;2023-01-28T04:30:45;99909.56;;;-5.49;41.15
42887;BME280;29032;56.028;92.904;2023-01-28T04:36:10;99901.38;;;-5.49;40.79
42887;BME280;29032;56.028;92.904;2023-01-28T04:41:36;99899.38;;;-5.61;40.90
42887;BME280;29032;56.028;92.904;2023-01-28T04:46:52;99897.31;;;-5.70;40.96
42887;BME280;29032;56.028;92.904;2023-01-28T04:52:29;99888.75;;;-5.85;41.04
42887;BME280;29032;56.028;92.904;2023-01-28T04:57:51;99888.97;;;-5.92;41.62
42887;BME280;29032;56.028;92.904;2023-01-28T05:02:55;99887.75;;;-5.91;42.12
42887;BME280;29032;56.028;92.904;2023-01-28T05:07:58;99889.28;;;-5.90;42.48
42887;BME280;29032;56.028;92.904;2023-01-28T05:13:00;99880.59;;;-5.85;42.68
42887;BME280;29032;56.028;92.904;2023-01-28T05:18:04;99883.44;;;-5.76;42.93
42887;BME280;29032;56.028;92.904;2023-01-28T05:23:13;99877.31;;;-5.80;43.37
42887;BME280;29032;56.028;92.904;2023-01-28T05:28:25;99882.69;;;-5.76;43.95
42887;BME280;29032;56.028;92.904;2023-01-28T05:33:29;99880.72;;;-5.76;44.35
42887;BME280;29032;56.028;92.904;2023-01-28T05:38:31;99876.13;;;-5.79;44.88
42887;BME280;29032;56.028;92.904;2023-01-28T05:43:34;99870.81;;;-5.69;45.25
42887;BME280;29032;56.028;92.904;2023-01-28T05:48:53;99863.53;;;-5.47;45.10
42887;BME280;29032;56.028;92.904;2023-01-28T05:54:14;99869.56;;;-5.27;44.55
42887;BME280;29032;56.028;92.904;2023-01-28T05:59:16;99857.75;;;-5.24;44.74
42887;BME280;29032;56.028;92.904;2023-01-28T06:04:21;99853.63;;;-5.15;45.16
42887;BME280;29032;56.028;92.904;2023-01-28T06:09:23;99851.31;;;-5.04;44.91
42887;BME280;29032;56.028;92.904;2023-01-28T06:14:26;99844.13;;;-4.98;44.85
42887;BME280;29032;56.028;92.904;2023-01-28T06:19:48;99838.44;;;-4.91;44.98
42887;BME280;29032;56.028;92.904;2023-01-28T06:24:51;99840.94;;;-4.84;44.60
42887;BME280;29032;56.028;92.904;2023-01-28T06:29:53;99828.25;;;-4.78;44.82
42887;BME280;29032;56.028;92.904;2023-01-28T06:34:57;99831.84;;;-4.68;45.32
42887;BME280;29032;56.028;92.904;2023-01-28T06:39:59;99822.44;;;-4.67;44.91
42887;BME280;29032;56.028;92.904;2023-01-28T06:45:01;99813.22;;;-4.48;44.92
42887;BME280;29032;56.028;92.904;2023-01-28T06:50:06;99809.53;;;-4.32;45.05
42887;BME280;29032;56.028;92.904;2023-01-28T06:55:08;99804.31;;;-4.17;44.86
42887;BME280;29032;56.028;92.904;2023-01-28T07:00:12;99802.13;;;-4.10;44.70
42887;BME280;29032;56.028;92.904;2023-01-28T07:05:15;99796.72;;;-4.00;44.83
42887;BME280;29032;56.028;92.904;2023-01-28T07:10:18;99789.72;;;-4.01;44.73
42887;BME280;29032;56.028;92.904;2023-01-28T07:15:20;99782.47;;;-3.95;45.07
42887;BME280;29032;56.028;92.904;2023-01-28T07:20:23;99772.16;;;-3.91;44.86
42887;BME280;29032;56.028;92.904;2023-01-28T07:25:25;99774.31;;;-3.86;44.77
42887;BME280;29032;56.028;92.904;2023-01-28T07:30:27;99764.91;;;-3.85;44.62
42887;BME280;29032;56.028;92.904;2023-01-28T07:35:31;99763.38;;;-3.86;44.86
42887;BME280;29032;56.028;92.904;2023-01-28T07:40:33;99765.22;;;-3.83;44.77
42887;BME280;29032;56.028;92.904;2023-01-28T07:45:36;99764.91;;;-3.85;45.39
42887;BME280;29032;56.028;92.904;2023-01-28T07:50:39;99751.88;;;-3.81;45.13
42887;BME280;29032;56.028;92.904;2023-01-28T07:55:42;99744.25;;;-3.86;45.47
42887;BME280;29032;56.028;92.904;2023-01-28T08:00:44;99748.50;;;-3.85;45.10
42887;BME280;29032;56.028;92.904;2023-01-28T08:05:49;99741.56;;;-3.77;45.20
42887;BME280;29032;56.028;92.904;2023-01-28T08:10:52;99735.50;;;-3.72;45.23
42887;BME280;29032;56.028;92.904;2023-01-28T08:15:55;99736.91;;;-3.67;45.33
42887;BME280;29032;56.028;92.904;2023-01-28T08:20:58;99735.22;;;-3.65;45.71
42887;BME280;29032;56.028;92.904;2023-01-28T08:26:01;99741.31;;;-3.61;45.18
42887;BME280;29032;56.028;92.904;2023-01-28T08:31:03;99735.72;;;-3.57;45.73
42887;BME280;29032;56.028;92.904;2023-01-28T08:36:07;99740.25;;;-3.54;45.50
42887;BME280;29032;56.028;92.904;2023-01-28T08:41:10;99737.69;;;-3.58;45.77
42887;BME280;29032;56.028;92.904;2023-01-28T08:46:12;99733.72;;;-3.57;45.34
42887;BME280;29032;56.028;92.904;2023-01-28T08:51:15;99739.84;;;-3.53;45.63
42887;BME280;29032;56.028;92.904;2023-01-28T08:56:17;99736.47;;;-3.57;45.94
42887;BME280;29032;56.028;92.904;2023-01-28T09:01:20;99729.47;;;-3.67;46.00
42887;BME280;29032;56.028;92.904;2023-01-28T09:06:23;99718.06;;;-3.65;46.19
42887;BME280;29032;56.028;92.904;2023-01-28T09:11:26;99707.81;;;-3.83;46.42
42887;BME280;29032;56.028;92.904;2023-01-28T09:16:28;99717.75;;;-3.98;46.69
42887;BME280;29032;56.028;92.904;2023-01-28T09:21:32;99716.56;;;-3.97;46.97
42887;BME280;29032;56.028;92.904;2023-01-28T09:26:34;99716.22;;;-4.09;47.37
42887;BME280;29032;56.028;92.904;2023-01-28T09:31:36;99718.19;;;-4.31;47.71
42887;BME280;29032;56.028;92.904;2023-01-28T09:36:39;99711.22;;;-4.32;48.01
42887;BME280;29032;56.028;92.904;2023-01-28T09:41:47;99715.78;;;-4.29;47.74
42887;BME280;29032;56.028;92.904;2023-01-28T09:46:59;99705.75;;;-4.32;47.97
42887;BME280;29032;56.028;92.904;2023-01-28T09:52:04;99709.63;;;-4.42;48.47
42887;BME280;29032;56.028;92.904;2023-01-28T09:57:12;99706.06;;;-4.30;48.20
42887;BME280;29032;56.028;92.904;2023-01-28T10:02:32;99698.16;;;-4.06;47.60
42887;BME280;29032;56.028;92.904;2023-01-28T10:07:43;99702.78;;;-3.94;47.57
42887;BME280;29032;56.028;92.904;2023-01-28T10:13:03;99700.22;;;-3.88;47.09
42887;BME280;29032;56.028;92.904;2023-01-28T10:18:09;99702.06;;;-4.16;48.53
42887;BME280;29032;56.028;92.904;2023-01-28T10:23:17;99707.78;;;-4.23;48.46
42887;BME280;29032;56.028;92.904;2023-01-28T10:28:23;99708.81;;;-4.30;48.82
42887;BME280;29032;56.028;92.904;2023-01-28T10:33:32;99706.38;;;-4.28;48.81
42887;BME280;29032;56.028;92.904;2023-01-28T10:38:38;99711.22;;;-4.32;49.16
42887;BME280;29032;56.028;92.904;2023-01-28T10:43:41;99691.66;;;-4.30;49.20
42887;BME280;29032;56.028;92.904;2023-01-28T10:48:46;99696.34;;;-4.31;49.11
42887;BME280;29032;56.028;92.904;2023-01-28T10:53:51;99686.56;;;-4.41;49.42
42887;BME280;29032;56.028;92.904;2023-01-28T10:58:57;99678.91;;;-4.55;49.55
42887;BME280;29032;56.028;92.904;2023-01-28T11:04:00;99680.72;;;-4.52;49.81
42887;BME280;29032;56.028;92.904;2023-01-28T11:09:22;99671.00;;;-4.31;48.56
42887;BME280;29032;56.028;92.904;2023-01-28T11:14:25;99665.97;;;-4.33;49.46
42887;BME280;29032;56.028;92.904;2023-01-28T11:19:33;99670.19;;;-4.41;49.40
42887;BME280;29032;56.028;92.904;2023-01-28T11:24:37;99665.56;;;-4.53;49.82
42887;BME280;29032;56.028;92.904;2023-01-28T11:29:39;99655.81;;;-4.64;49.78
42887;BME280;29032;56.028;92.904;2023-01-28T11:34:48;99665.81;;;-4.60;49.76
42887;BME280;29032;56.028;92.904;2023-01-28T11:40:14;99665.50;;;-4.63;49.65
42887;BME280;29032;56.028;92.904;2023-01-28T11:45:18;99661.47;;;-4.58;50.12
42887;BME280;29032;56.028;92.904;2023-01-28T11:50:28;99666.88;;;-4.36;49.25
42887;BME280;29032;56.028;92.904;2023-01-28T11:55:47;99658.78;;;-4.18;48.89
42887;BME280;29032;56.028;92.904;2023-01-28T12:01:00;99641.63;;;-4.18;49.17
42887;BME280;29032;56.028;92.904;2023-01-28T12:06:26;99648.88;;;-4.24;48.98
42887;BME280;29032;56.028;92.904;2023-01-28T12:11:38;99637.72;;;-4.39;49.33
42887;BME280;29032;56.028;92.904;2023-01-28T12:16:53;99639.31;;;-4.29;49.09
42887;BME280;29032;56.028;92.904;2023-01-28T12:22:07;99639.31;;;-4.29;49.61
42887;BME280;29032;56.028;92.904;2023-01-28T12:27:25;99642.72;;;-4.16;49.06
42887;BME280;29032;56.028;92.904;2023-01-28T12:32:47;99628.31;;;-4.07;48.58
42887;BME280;29032;56.028;92.904;2023-01-28T12:38:08;99634.00;;;-3.92;48.55
42887;BME280;29032;56.028;92.904;2023-01-28T12:43:19;99627.59;;;-3.89;48.94
42887;BME280;29032;56.028;92.904;2023-01-28T12:48:28;99629.09;;;-3.97;48.80
42887;BME280;29032;56.028;92.904;2023-01-28T12:53:37;99621.88;;;-4.22;49.17
42887;BME280;29032;56.028;92.904;2023-01-28T12:58:47;99617.25;;;-4.44;49.34
42887;BME280;29032;56.028;92.904;2023-01-28T13:03:55;99632.00;;;-4.32;49.94
42887;BME280;29032;56.028;92.904;2023-01-28T13:09:09;99623.13;;;-4.14;49.66
42887;BME280;29032;56.028;92.904;2023-01-28T13:14:14;99619.66;;;-4.05;49.28
42887;BME280;29032;56.028;92.904;2023-01-28T13:19:45;99612.13;;;-3.92;48.44
42887;BME280;29032;56.028;92.904;2023-01-28T13:24:48;99606.94;;;-3.99;49.13
42887;BME280;29032;56.028;92.904;2023-01-28T13:30:01;99604.69;;;-3.83;48.94
42887;BME280;29032;56.028;92.904;2023-01-28T13:35:06;99602.28;;;-3.81;48.62
42887;BME280;29032;56.028;92.904;2023-01-28T13:40:23;99593.94;;;-3.68;47.90
42887;BME280;29032;56.028;92.904;2023-01-28T13:45:28;99594.84;;;-3.71;48.92
42887;BME280;29032;56.028;92.904;2023-01-28T13:50:36;99597.88;;;-3.69;48.51
42887;BME280;29032;56.028;92.904;2023-01-28T13:55:41;99587.88;;;-3.72;48.72
42887;BME280;29032;56.028;92.904;2023-01-28T14:01:02;99577.41;;;-3.64;48.40
42887;BME280;29032;56.028;92.904;2023-01-28T14:12:16;99576.75;;;-3.87;48.18
42887;BME280;29032;56.028;92.904;2023-01-28T14:17:33;99568.50;;;-4.14;49.49
42887;BME280;29032;56.028;92.904;2023-01-28T14:22:43;99550.50;;;-4.33;49.69
42887;BME280;29032;56.028;92.904;2023-01-28T14:27:47;99550.06;;;-4.32;50.01
42887;BME280;29032;56.028;92.904;2023-01-28T14:32:54;99552.22;;;-4.27;50.08
42887;BME280;29032;56.028;92.904;2023-01-28T14:37:57;99537.44;;;-4.39;50.23
42887;BME280;29032;56.028;92.904;2023-01-28T14:43:00;99547.97;;;-4.28;50.27
42887;BME280;29032;56.028;92.904;2023-01-28T14:48:19;99543.16;;;-4.15;49.23
42887;BME280;29032;56.028;92.904;2023-01-28T14:53:35;99532.53;;;-4.13;49.53
42887;BME280;29032;56.028;92.904;2023-01-28T14:58:44;99524.31;;;-4.22;49.95
42887;BME280;29032;56.028;92.904;2023-01-28T15:03:49;99534.88;;;-4.33;50.06
42887;BME280;29032;56.028;92.904;2023-01-28T15:08:52;99523.78;;;-4.39;49.50
42887;BME280;29032;56.028;92.904;2023-01-28T15:13:56;99522.91;;;-4.36;49.96
42887;BME280;29032;56.028;92.904;2023-01-28T15:19:01;99507.28;;;-4.35;49.13
42887;BME280;29032;56.028;92.904;2023-01-28T15:24:04;99502.13;;;-4.33;49.83
42887;BME280;29032;56.028;92.904;2023-01-28T15:29:19;99508.84;;;-4.16;49.22
42887;BME280;29032;56.028;92.904;2023-01-28T15:34:25;99516.31;;;-3.98;49.21
42887;BME280;29032;56.028;92.904;2023-01-28T15:39:28;99510.53;;;-3.91;48.63
42887;BME280;29032;56.028;92.904;2023-01-28T15:44:32;99502.22;;;-3.87;48.23
42887;BME280;29032;56.028;92.904;2023-01-28T15:49:41;99504.19;;;-3.88;48.25
42887;BME280;29032;56.028;92.904;2023-01-28T15:54:49;99496.41;;;-4.08;48.83
42887;BME280;29032;56.028;92.904;2023-01-28T16:00:12;99488.81;;;-4.13;48.82
42887;BME280;29032;56.028;92.904;2023-01-28T16:05:26;99472.06;;;-4.33;49.03
42887;BME280;29032;56.028;92.904;2023-01-28T16:10:29;99484.50;;;-4.32;49.63
42887;BME280;29032;56.028;92.904;2023-01-28T16:15:32;99480.25;;;-4.33;49.69
42887;BME280;29032;56.028;92.904;2023-01-28T16:20:37;99465.69;;;-4.39;49.91
42887;BME280;29032;56.028;92.904;2023-01-28T16:25:39;99454.91;;;-4.43;49.91
42887;BME280;29032;56.028;92.904;2023-01-28T16:30:41;99449.78;;;-4.31;49.48
42887;BME280;29032;56.028;92.904;2023-01-28T16:35:45;99444.16;;;-4.28;49.58
42887;BME280;29032;56.028;92.904;2023-01-28T16:40:47;99446.59;;;-4.21;49.56
42887;BME280;29032;56.028;92.904;2023-01-28T16:45:50;99428.56;;;-4.09;49.23
42887;BME280;29032;56.028;92.904;2023-01-28T16:50:53;99423.06;;;-4.27;49.29
42887;BME280;29032;56.028;92.904;2023-01-28T16:55:55;99428.97;;;-4.38;50.37
42887;BME280;29032;56.028;92.904;2023-01-28T17:00:57;99430.81;;;-4.44;50.08
42887;BME280;29032;56.028;92.904;2023-01-28T17:06:01;99419.25;;;-4.48;50.34
42887;BME280;29032;56.028;92.904;2023-01-28T17:11:03;99409.09;;;-4.48;50.71
42887;BME280;29032;56.028;92.904;2023-01-28T17:16:06;99420.47;;;-4.40;50.37
42887;BME280;29032;56.028;92.904;2023-01-28T17:21:10;99406.22;;;-4.35;50.45
42887;BME280;29032;56.028;92.904;2023-01-28T17:26:13;99395.59;;;-4.42;50.39
42887;BME280;29032;56.028;92.904;2023-01-28T17:31:16;99395.75;;;-4.46;50.22
42887;BME280;29032;56.028;92.904;2023-01-28T17:36:20;99390.75;;;-4.38;50.59
42887;BME280;29032;56.028;92.904;2023-01-28T17:41:22;99393.16;;;-4.40;50.02
42887;BME280;29032;56.028;92.904;2023-01-28T17:46:24;99378.91;;;-4.35;49.46
42887;BME280;29032;56.028;92.904;2023-01-28T17:51:28;99383.03;;;-4.21;50.00
42887;BME280;29032;56.028;92.904;2023-01-28T17:56:31;99372.84;;;-4.12;49.88
42887;BME280;29032;56.028;92.904;2023-01-28T18:01:33;99376.03;;;-4.04;49.53
42887;BME280;29032;56.028;92.904;2023-01-28T18:06:37;99372.53;;;-4.04;49.05
42887;BME280;29032;56.028;92.904;2023-01-28T18:11:39;99362.84;;;-4.05;49.39
42887;BME280;29032;56.028;92.904;2023-01-28T18:16:41;99346.72;;;-3.85;48.25
42887;BME280;29032;56.028;92.904;2023-01-28T18:21:45;99346.69;;;-3.67;48.48
42887;BME280;29032;56.028;92.904;2023-01-28T18:26:47;99343.16;;;-3.58;47.72
42887;BME280;29032;56.028;92.904;2023-01-28T18:31:49;99335.44;;;-3.60;47.60
42887;BME280;29032;56.028;92.904;2023-01-28T18:36:53;99327.69;;;-3.70;47.22
42887;BME280;29032;56.028;92.904;2023-01-28T18:41:56;99329.53;;;-3.76;47.16
42887;BME280;29032;56.028;92.904;2023-01-28T18:46:58;99315.28;;;-3.90;47.68
42887;BME280;29032;56.028;92.904;2023-01-28T18:52:02;99315.28;;;-3.90;47.86
42887;BME280;29032;56.028;92.904;2023-01-28T18:57:04;99323.97;;;-4.00;47.50
42887;BME280;29032;56.028;92.904;2023-01-28T19:02:07;99333.69;;;-3.99;47.84
42887;BME280;29032;56.028;92.904;2023-01-28T19:07:11;99339.47;;;-4.07;48.00
42887;BME280;29032;56.028;92.904;2023-01-28T19:12:13;99345.84;;;-4.10;48.32
42887;BME280;29032;56.028;92.904;2023-01-28T19:17:15;99351.16;;;-4.06;47.91
42887;BME280;29032;56.028;92.904;2023-01-28T19:22:18;99326.41;;;-4.02;48.18
42887;BME280;29032;56.028;92.904;2023-01-28T19:27:21;99329.16;;;-4.02;47.73
42887;BME280;29032;56.028;92.904;2023-01-28T19:32:23;99338.53;;;-4.03;48.50
42887;BME280;29032;56.028;92.904;2023-01-28T19:37:29;99322.78;;;-4.09;48.85
42887;BME280;29032;56.028;92.904;2023-01-28T19:42:31;99328.84;;;-4.14;48.88
42887;BME280;29032;56.028;92.904;2023-01-28T19:47:33;99317.63;;;-4.16;48.90
42887;BME280;29032;56.028;92.904;2023-01-28T19:52:37;99317.59;;;-4.07;48.84
42887;BME280;29032;56.028;92.904;2023-01-28T19:57:39;99311.22;;;-4.03;48.45
42887;BME280;29032;56.028;92.904;2023-01-28T20:02:41;99309.72;;;-4.14;48.12
42887;BME280;29032;56.028;92.904;2023-01-28T20:07:45;99303.38;;;-4.29;48.09
42887;BME280;29032;56.028;92.904;2023-01-28T20:12:47;99303.66;;;-4.45;48.29
42887;BME280;29032;56.028;92.904;2023-01-28T20:23:11;99286.38;;;-4.51;48.52
42887;BME280;29032;56.028;92.904;2023-01-28T20:28:13;99291.84;;;-4.51;47.59
42887;BME280;29032;56.028;92.904;2023-01-28T20:33:15;99277.59;;;-4.55;47.82
42887;BME280;29032;56.028;92.904;2023-01-28T20:38:18;99278.63;;;-4.53;47.57
42887;BME280;29032;56.028;92.904;2023-01-28T20:43:21;99265.44;;;-4.45;47.52
42887;BME280;29032;56.028;92.904;2023-01-28T20:48:23;99259.97;;;-4.45;47.43
42887;BME280;29032;56.028;92.904;2023-01-28T20:53:27;99246.63;;;-4.43;46.93
42887;BME280;29032;56.028;92.904;2023-01-28T20:58:29;99248.75;;;-4.47;46.82
42887;BME280;29032;56.028;92.904;2023-01-28T21:03:33;99246.31;;;-4.36;47.12
42887;BME280;29032;56.028;92.904;2023-01-28T21:08:37;99241.91;;;-4.33;46.72
42887;BME280;29032;56.028;92.904;2023-01-28T21:13:39;99239.63;;;-4.26;46.03
42887;BME280;29032;56.028;92.904;2023-01-28T21:19:09;99228.06;;;-4.12;45.28
42887;BME280;29032;56.028;92.904;2023-01-28T21:24:13;99227.69;;;-4.38;45.74
42887;BME280;29032;56.028;92.904;2023-01-28T21:29:15;99222.34;;;-4.41;45.66
42887;BME280;29032;56.028;92.904;2023-01-28T21:34:17;99218.25;;;-4.37;45.21
42887;BME280;29032;56.028;92.904;2023-01-28T21:39:20;99206.28;;;-4.30;44.93
42887;BME280;29032;56.028;92.904;2023-01-28T21:44:23;99198.38;;;-4.28;44.99
42887;BME280;29032;56.028;92.904;2023-01-28T21:49:25;99199.72;;;-4.23;44.76
42887;BME280;29032;56.028;92.904;2023-01-28T21:54:28;99198.75;;;-4.11;44.31
42887;BME280;29032;56.028;92.904;2023-01-28T21:59:39;99190.13;;;-4.10;44.00
42887;BME280;29032;56.028;92.904;2023-01-28T22:04:44;99181.19;;;-4.19;43.46
42887;BME280;29032;56.028;92.904;2023-01-28T22:09:48;99186.66;;;-4.19;43.18
42887;BME280;29032;56.028;92.904;2023-01-28T22:14:53;99175.59;;;-4.25;42.78
42887;BME280;29032;56.028;92.904;2023-01-28T22:19:55;99175.88;;;-4.14;43.11
42887;BME280;29032;56.028;92.904;2023-01-28T22:24:58;99173.13;;;-4.14;42.88
42887;BME280;29032;56.028;92.904;2023-01-28T22:30:25;99170.88;;;-4.15;43.70
42887;BME280;29032;56.028;92.904;2023-01-28T22:35:27;99155.56;;;-4.22;42.72
42887;BME280;29032;56.028;92.904;2023-01-28T22:40:31;99148.41;;;-4.19;42.43
42887;BME280;29032;56.028;92.904;2023-01-28T22:45:34;99143.28;;;-4.26;42.29
42887;BME280;29032;56.028;92.904;2023-01-28T22:50:36;99131.47;;;-4.32;41.98
42887;BME280;29032;56.028;92.904;2023-01-28T22:55:40;99125.75;;;-4.44;41.40
42887;BME280;29032;56.028;92.904;2023-01-28T23:00:42;99122.25;;;-4.53;41.64
42887;BME280;29032;56.028;92.904;2023-01-28T23:05:44;99112.09;;;-4.53;41.65
42887;BME280;29032;56.028;92.904;2023-01-28T23:10:48;99095.28;;;-4.51;41.21
42887;BME280;29032;56.028;92.904;2023-01-28T23:15:51;99101.03;;;-4.49;41.23
42887;BME280;29032;56.028;92.904;2023-01-28T23:20:53;99095.13;;;-4.57;40.84
42887;BME280;29032;56.028;92.904;2023-01-28T23:25:57;99069.81;;;-4.57;40.24
42887;BME280;29032;56.028;92.904;2023-01-28T23:30:59;99073.84;;;-4.86;40.32
42887;BME280;29032;56.028;92.904;2023-01-28T23:36:01;99088.41;;;-4.98;39.86
42887;BME280;29032;56.028;92.904;2023-01-28T23:41:05;99086.91;;;-4.99;39.99
42887;BME280;29032;56.028;92.904;2023-01-28T23:46:07;99090.84;;;-5.00;39.64
42887;BME280;29032;56.028;92.904;2023-01-28T23:51:09;99076.88;;;-4.93;39.76
42887;BME280;29032;56.028;92.904;2023-01-28T23:56:13;99088.69;;;-4.96;39.29
